Terminal Aerodrome Forecast
Issued by NWS Sioux Falls, SD

Home | Current Version | Previous Version | Text Only | Print | Product List | Glossary On
Versions: 1 2 3 4 5 6 7 8 9 10 11 12 13 14 15
609
FTUS43 KFSD 221122
TAFHON
TAF
KHON 221122Z 2212/2312 27006KT P6SM VCSH BKN110
     FM221400 29007KT P6SM BKN200
     FM221700 30013G21KT P6SM SCT200
     FM230000 33012KT P6SM BKN060
     FM230200 35010KT P6SM BKN025
     FM230500 01011KT P6SM OVC012=

USA.gov is the U.S. government's official web portal to all federal, state and local government web resources and services.